createdAt,value
2019-05-18T00:01:51.226Z,100.00
2019-05-18T00:04:20.363Z,100.00
2019-05-18T00:06:49.427Z,100.00
2019-05-18T00:09:18.667Z,100.00
2019-05-18T00:11:47.922Z,100.00
2019-05-18T00:14:17.162Z,100.00
2019-05-18T00:16:46.225Z,100.00
2019-05-18T00:19:15.485Z,100.00
2019-05-18T00:21:44.591Z,100.00
2019-05-18T00:24:13.667Z,100.00
2019-05-18T00:26:42.812Z,100.00
2019-05-18T00:29:11.983Z,100.00
2019-05-18T00:31:41.070Z,100.00
2019-05-18T00:34:10.106Z,100.00
2019-05-18T00:36:39.319Z,100.00
2019-05-18T00:39:08.555Z,100.00
2019-05-18T00:41:37.734Z,100.00
2019-05-18T00:44:06.917Z,100.00
2019-05-18T00:46:36.168Z,100.00
2019-05-18T00:49:05.351Z,100.00
2019-05-18T00:51:34.522Z,100.00
2019-05-18T00:54:03.771Z,100.00
2019-05-18T00:56:32.975Z,100.00
2019-05-18T00:59:02.157Z,100.00
2019-05-18T01:01:31.283Z,100.00
2019-05-18T01:04:00.425Z,100.00
2019-05-18T01:06:29.556Z,100.00
2019-05-18T01:08:58.635Z,100.00
2019-05-18T01:11:27.855Z,100.00
2019-05-18T01:13:56.878Z,100.00
2019-05-18T01:16:26.030Z,100.00
2019-05-18T01:18:55.160Z,100.00
2019-05-18T01:21:24.254Z,100.00
2019-05-18T01:23:53.415Z,100.00
2019-05-18T01:26:22.652Z,100.00
2019-05-18T01:28:53.131Z,100.00
2019-05-18T01:31:22.312Z,100.00
2019-05-18T01:33:53.542Z,100.00
2019-05-18T01:36:22.741Z,100.00
2019-05-18T01:38:51.929Z,100.00
2019-05-18T01:41:20.988Z,100.00
2019-05-18T01:43:50.118Z,100.00
2019-05-18T01:46:20.099Z,100.00
2019-05-18T01:48:49.289Z,100.00
2019-05-18T01:51:18.430Z,100.00
2019-05-18T01:53:47.428Z,100.00
2019-05-18T01:56:16.634Z,100.00
2019-05-18T01:58:45.861Z,100.00
2019-05-18T02:01:15.086Z,100.00
2019-05-18T02:03:44.296Z,100.00
2019-05-18T02:06:13.504Z,100.00
2019-05-18T02:08:42.595Z,100.00
2019-05-18T02:11:11.861Z,100.00
2019-05-18T02:13:41.054Z,100.00
2019-05-18T02:16:10.205Z,100.00
2019-05-18T02:18:39.333Z,100.00
2019-05-18T02:21:08.596Z,100.00
2019-05-18T02:23:37.755Z,100.00
2019-05-18T02:26:07.027Z,100.00
2019-05-18T02:28:36.150Z,100.00
2019-05-18T02:31:05.438Z,100.00
2019-05-18T02:33:34.524Z,100.00
2019-05-18T02:36:03.697Z,100.00
2019-05-18T02:38:32.818Z,100.00
2019-05-18T02:41:01.987Z,100.00
2019-05-18T02:43:31.016Z,100.00
2019-05-18T02:46:00.177Z,100.00
2019-05-18T02:48:47.131Z,100.00
2019-05-18T02:51:00.259Z,100.00
2019-05-18T02:53:29.412Z,100.00
2019-05-18T02:55:58.553Z,100.00
2019-05-18T02:58:27.741Z,100.00
2019-05-18T03:00:57.006Z,100.00
2019-05-18T03:03:26.107Z,100.00
2019-05-18T03:05:55.722Z,100.00
2019-05-18T03:08:24.855Z,100.00
2019-05-18T03:10:53.956Z,100.00
2019-05-18T03:13:23.136Z,100.00
2019-05-18T03:15:52.358Z,100.00
2019-05-18T03:18:21.599Z,100.00
2019-05-18T03:20:50.842Z,100.00
2019-05-18T03:23:20.071Z,100.00
2019-05-18T03:25:49.210Z,100.00
2019-05-18T03:28:18.304Z,100.00
2019-05-18T03:30:47.331Z,100.00
2019-05-18T03:33:16.527Z,100.00
2019-05-18T03:35:45.678Z,100.00
2019-05-18T03:38:14.699Z,100.00
2019-05-18T03:40:44.074Z,100.00
2019-05-18T03:43:13.312Z,100.00
2019-05-18T03:45:42.498Z,100.00
2019-05-18T03:48:11.719Z,100.00
2019-05-18T03:50:40.971Z,100.00
2019-05-18T03:53:10.102Z,100.00
2019-05-18T03:55:39.221Z,100.00
2019-05-18T03:58:08.407Z,100.00
2019-05-18T04:00:37.530Z,100.00
2019-05-18T04:03:06.607Z,100.00
2019-05-18T04:05:35.720Z,100.00
2019-05-18T04:08:04.958Z,100.00
2019-05-18T04:10:34.122Z,100.00
2019-05-18T04:13:03.274Z,100.00
2019-05-18T04:15:32.398Z,100.00
2019-05-18T04:18:01.446Z,100.00
2019-05-18T04:20:30.584Z,100.00
2019-05-18T04:22:59.638Z,100.00
2019-05-18T04:25:28.700Z,100.00
2019-05-18T04:27:57.820Z,100.00
2019-05-18T04:30:26.965Z,100.00
2019-05-18T04:32:56.260Z,100.00
2019-05-18T04:35:25.532Z,100.00
2019-05-18T04:37:54.647Z,100.00
2019-05-18T04:40:23.783Z,100.00
2019-05-18T04:42:53.000Z,100.00
2019-05-18T04:45:22.234Z,100.00
2019-05-18T04:47:51.420Z,100.00
2019-05-18T04:50:20.607Z,100.00
2019-05-18T04:52:49.746Z,100.00
2019-05-18T04:55:18.850Z,100.00
2019-05-18T04:57:48.051Z,100.00
2019-05-18T05:00:17.224Z,100.00
2019-05-18T05:02:46.351Z,100.00
2019-05-18T05:05:15.562Z,100.00
2019-05-18T05:07:44.793Z,100.00
2019-05-18T05:10:14.015Z,100.00
2019-05-18T05:12:43.074Z,100.00
2019-05-18T05:15:12.377Z,100.00
2019-05-18T05:17:41.497Z,100.00
2019-05-18T05:20:19.452Z,100.00
2019-05-18T05:22:41.864Z,100.00
2019-05-18T05:25:11.051Z,100.00
2019-05-18T05:27:40.266Z,100.00
2019-05-18T05:30:09.705Z,100.00
2019-05-18T05:32:38.707Z,100.00
2019-05-18T05:35:09.868Z,100.00
2019-05-18T05:37:39.106Z,100.00
2019-05-18T05:40:08.510Z,100.00
2019-05-18T05:42:37.722Z,100.00
2019-05-18T05:45:07.188Z,100.00
2019-05-18T05:47:37.494Z,100.00
2019-05-18T05:50:07.380Z,100.00
2019-05-18T05:52:36.612Z,100.00
2019-05-18T05:55:06.004Z,100.00
2019-05-18T05:57:35.172Z,100.00
2019-05-18T06:00:05.017Z,100.00
2019-05-18T06:02:34.234Z,100.00
2019-05-18T06:05:03.489Z,100.00
2019-05-18T06:07:32.634Z,100.00
2019-05-18T06:10:01.882Z,100.00
2019-05-18T06:12:31.110Z,100.00
2019-05-18T06:15:00.260Z,100.00
2019-05-18T06:17:29.391Z,100.00
2019-05-18T06:19:58.560Z,100.00
2019-05-18T06:22:27.659Z,100.00
2019-05-18T06:24:56.758Z,100.00
2019-05-18T06:27:25.892Z,100.00
2019-05-18T06:29:55.142Z,100.00
2019-05-18T06:32:24.335Z,100.00
2019-05-18T06:34:53.575Z,100.00
2019-05-18T06:37:22.581Z,100.00
2019-05-18T06:39:51.579Z,100.00
2019-05-18T06:42:20.599Z,99.97
2019-05-18T06:44:49.657Z,100.00
2019-05-18T06:47:18.764Z,100.00
2019-05-18T06:49:47.746Z,100.00
2019-05-18T06:52:16.843Z,99.88
2019-05-18T06:54:46.037Z,98.01
2019-05-18T06:57:16.479Z,97.10
2019-05-18T06:59:45.678Z,96.17
2019-05-18T07:02:15.948Z,95.19
2019-05-18T07:04:44.967Z,95.16
2019-05-18T07:07:14.037Z,93.46
2019-05-18T07:09:43.203Z,92.07
2019-05-18T07:12:12.355Z,96.10
2019-05-18T07:14:41.337Z,96.08
2019-05-18T07:17:10.353Z,94.23
2019-05-18T07:19:39.362Z,93.39
2019-05-18T07:22:08.566Z,92.16
2019-05-18T07:24:37.583Z,89.46
2019-05-18T07:27:06.753Z,89.89
2019-05-18T07:29:38.178Z,86.06
2019-05-18T07:32:07.270Z,87.86
2019-05-18T07:34:36.389Z,89.12
2019-05-18T07:37:05.570Z,86.78
2019-05-18T07:39:36.167Z,84.36
2019-05-18T07:42:05.475Z,83.12
2019-05-18T07:44:34.521Z,83.11
2019-05-18T07:47:03.669Z,83.05
2019-05-18T07:49:32.731Z,83.50
2019-05-18T07:52:01.995Z,83.50
2019-05-18T07:54:31.189Z,84.23
2019-05-18T07:57:00.220Z,82.87
2019-05-18T07:59:29.258Z,81.98
2019-05-18T08:01:58.297Z,87.57
2019-05-18T08:04:27.476Z,82.68
2019-05-18T08:06:56.628Z,83.25
2019-05-18T08:09:25.707Z,81.91
2019-05-18T08:11:54.801Z,78.50
2019-05-18T08:14:23.982Z,78.50
2019-05-18T08:16:53.192Z,80.01
2019-05-18T08:19:22.468Z,77.12
2019-05-18T08:21:53.580Z,79.46
2019-05-18T08:24:22.392Z,78.39
2019-05-18T08:26:51.400Z,74.80
2019-05-18T08:29:20.604Z,77.76
2019-05-18T08:31:49.694Z,74.67
2019-05-18T08:34:18.867Z,72.99
2019-05-18T08:36:47.949Z,70.69
2019-05-18T08:39:17.111Z,71.99
2019-05-18T08:41:48.744Z,70.73
2019-05-18T08:44:17.023Z,70.73
2019-05-18T08:46:46.152Z,69.21
2019-05-18T08:49:15.298Z,69.21
2019-05-18T08:51:44.545Z,66.33
2019-05-18T08:54:13.805Z,65.31
2019-05-18T08:56:42.915Z,65.28
2019-05-18T08:59:12.010Z,65.28
2019-05-18T09:01:41.187Z,65.98
2019-05-18T09:04:10.330Z,65.41
2019-05-18T09:06:39.496Z,65.87
2019-05-18T09:09:08.741Z,66.36
2019-05-18T09:11:38.886Z,66.36
2019-05-18T09:14:08.037Z,65.39
2019-05-18T09:16:37.189Z,67.47
2019-05-18T09:19:06.300Z,65.29
2019-05-18T09:21:35.542Z,66.05
2019-05-18T09:24:04.688Z,64.74
2019-05-18T09:26:33.789Z,64.72
2019-05-18T09:29:03.105Z,63.95
2019-05-18T09:31:32.350Z,63.92
2019-05-18T09:34:01.632Z,64.36
2019-05-18T09:36:30.806Z,68.11
2019-05-18T09:39:00.012Z,69.69
2019-05-18T09:41:30.180Z,70.84
2019-05-18T09:43:59.284Z,66.54
2019-05-18T09:46:28.458Z,64.67
2019-05-18T09:48:57.590Z,63.54
2019-05-18T09:51:26.765Z,63.28
2019-05-18T09:53:56.012Z,63.28
2019-05-18T09:56:25.352Z,66.51
2019-05-18T09:58:54.364Z,67.12
2019-05-18T10:01:23.521Z,67.11
2019-05-18T10:03:52.711Z,67.58
2019-05-18T10:06:21.911Z,66.80
2019-05-18T10:08:51.072Z,67.43
2019-05-18T10:11:20.276Z,67.45
2019-05-18T10:13:49.392Z,67.45
2019-05-18T10:16:18.675Z,66.23
2019-05-18T10:18:47.800Z,66.23
2019-05-18T10:21:16.967Z,62.39
2019-05-18T10:23:46.002Z,61.53
2019-05-18T10:26:15.094Z,64.12
2019-05-18T10:28:44.251Z,59.25
2019-05-18T10:31:13.366Z,59.25
2019-05-18T10:33:42.619Z,60.03
2019-05-18T10:36:11.956Z,60.03
2019-05-18T10:38:41.072Z,56.35
2019-05-18T10:41:10.218Z,58.35
2019-05-18T10:43:39.265Z,55.97
2019-05-18T10:46:08.477Z,55.22
2019-05-18T10:48:37.603Z,56.04
2019-05-18T10:51:06.799Z,57.47
2019-05-18T10:53:36.052Z,57.80
2019-05-18T10:56:05.271Z,51.91
2019-05-18T10:58:34.436Z,50.62
2019-05-18T11:01:03.795Z,50.62
2019-05-18T11:03:32.870Z,51.34
2019-05-18T11:06:02.137Z,50.03
2019-05-18T11:08:31.191Z,47.97
2019-05-18T11:11:00.235Z,48.88
2019-05-18T11:13:29.313Z,46.53
2019-05-18T11:15:58.329Z,46.99
2019-05-18T11:18:30.258Z,48.81
2019-05-18T11:20:58.528Z,47.64
2019-05-18T11:23:27.665Z,48.16
2019-05-18T11:25:56.849Z,48.95
2019-05-18T11:28:26.069Z,45.84
2019-05-18T11:30:55.290Z,47.69
2019-05-18T11:33:25.571Z,49.24
2019-05-18T11:35:54.682Z,49.30
2019-05-18T11:38:23.893Z,50.62
2019-05-18T11:40:53.023Z,50.08
2019-05-18T11:43:22.185Z,51.70
2019-05-18T11:45:51.196Z,49.23
2019-05-18T11:48:20.428Z,49.12
2019-05-18T11:50:49.598Z,47.37
2019-05-18T11:53:18.764Z,47.87
2019-05-18T11:55:47.931Z,47.87
2019-05-18T11:58:17.101Z,49.10
2019-05-18T12:00:46.091Z,47.48
2019-05-18T12:03:15.214Z,47.54
2019-05-18T12:05:44.416Z,48.47
2019-05-18T12:08:13.459Z,48.29
2019-05-18T12:10:42.441Z,46.04
2019-05-18T12:13:11.581Z,45.43
2019-05-18T12:15:40.687Z,45.43
2019-05-18T12:18:09.821Z,46.55
2019-05-18T12:20:39.050Z,46.55
2019-05-18T12:23:09.020Z,47.65
2019-05-18T12:25:38.215Z,48.13
2019-05-18T12:28:07.449Z,46.24
2019-05-18T12:30:36.656Z,43.31
2019-05-18T12:33:05.884Z,44.04
2019-05-18T12:35:34.943Z,45.44
2019-05-18T12:38:04.045Z,42.97
2019-05-18T12:40:33.035Z,42.97
2019-05-18T12:43:02.172Z,44.08
2019-05-18T12:45:31.230Z,43.20
2019-05-18T12:48:00.298Z,43.30
2019-05-18T12:50:29.414Z,43.30
2019-05-18T12:52:58.463Z,42.15
2019-05-18T12:55:27.603Z,42.15
2019-05-18T12:57:56.720Z,43.59
2019-05-18T13:00:27.483Z,43.95
2019-05-18T13:02:56.650Z,44.04
2019-05-18T13:05:32.797Z,44.27
2019-05-18T13:08:01.859Z,44.27
2019-05-18T13:10:30.988Z,41.57
2019-05-18T13:12:59.983Z,43.44
2019-05-18T13:15:29.183Z,44.65
2019-05-18T13:17:58.194Z,44.65
2019-05-18T13:20:27.374Z,44.48
2019-05-18T13:22:56.517Z,41.59
2019-05-18T13:25:25.689Z,40.65
2019-05-18T13:27:54.753Z,41.03
2019-05-18T13:30:24.259Z,40.52
2019-05-18T13:32:53.290Z,42.68
2019-05-18T13:35:22.468Z,39.94
2019-05-18T13:37:51.606Z,42.32
2019-05-18T13:40:21.904Z,46.36
2019-05-18T13:42:50.915Z,42.74
2019-05-18T13:45:20.508Z,41.57
2019-05-18T13:47:49.651Z,41.57
2019-05-18T13:50:19.241Z,41.46
2019-05-18T13:52:48.328Z,41.37
2019-05-18T13:55:17.616Z,39.75
2019-05-18T13:57:46.781Z,40.85
2019-05-18T14:00:16.561Z,38.25
2019-05-18T14:02:45.665Z,37.38
2019-05-18T14:05:15.077Z,36.71
2019-05-18T14:07:44.074Z,38.67
2019-05-18T14:10:13.923Z,40.05
2019-05-18T14:12:43.004Z,40.05
2019-05-18T14:15:12.971Z,38.89
2019-05-18T14:17:42.043Z,38.57
2019-05-18T14:20:11.238Z,42.62
2019-05-18T14:22:40.315Z,42.62
2019-05-18T14:25:18.690Z,38.72
2019-05-18T14:27:40.448Z,39.57
2019-05-18T14:30:09.865Z,40.05
2019-05-18T14:32:38.879Z,40.05
2019-05-18T14:35:08.694Z,42.10
2019-05-18T14:37:37.754Z,40.89
2019-05-18T14:40:07.295Z,39.99
2019-05-18T14:42:36.326Z,42.02
2019-05-18T14:45:05.945Z,38.33
2019-05-18T14:47:35.057Z,38.95
2019-05-18T14:50:04.471Z,40.31
2019-05-18T14:52:33.512Z,40.88
2019-05-18T14:55:02.584Z,39.52
2019-05-18T14:57:31.692Z,39.36
2019-05-18T15:00:02.383Z,38.58
2019-05-18T15:02:31.813Z,37.22
2019-05-18T15:05:00.808Z,37.22
2019-05-18T15:07:29.952Z,40.39
2019-05-18T15:09:58.971Z,38.61
2019-05-18T15:12:27.993Z,38.62
2019-05-18T15:14:56.968Z,38.62
2019-05-18T15:17:26.133Z,39.28
2019-05-18T15:19:55.102Z,39.92
2019-05-18T15:22:24.246Z,37.79
2019-05-18T15:24:53.252Z,37.33
2019-05-18T15:27:22.291Z,39.82
2019-05-18T15:29:51.251Z,38.77
2019-05-18T15:32:20.357Z,38.77
2019-05-18T15:34:49.354Z,51.11
2019-05-18T15:37:18.388Z,48.93
2019-05-18T15:39:47.387Z,48.93
2019-05-18T15:42:16.391Z,49.02
2019-05-18T15:44:45.461Z,49.81
2019-05-18T15:47:14.517Z,49.91
2019-05-18T15:49:43.595Z,49.91
2019-05-18T15:52:12.785Z,49.60
2019-05-18T15:54:41.828Z,53.40
2019-05-18T15:57:10.862Z,51.25
2019-05-18T15:59:39.848Z,50.93
2019-05-18T16:02:08.948Z,50.93
2019-05-18T16:04:38.001Z,52.19
2019-05-18T16:07:07.165Z,52.19
2019-05-18T16:09:36.212Z,55.00
2019-05-18T16:12:05.363Z,53.53
2019-05-18T16:14:34.469Z,52.22
2019-05-18T16:17:03.507Z,53.42
2019-05-18T16:19:32.467Z,53.42
2019-05-18T16:22:01.518Z,53.48
2019-05-18T16:24:30.546Z,53.48
2019-05-18T16:26:59.562Z,55.38
2019-05-18T16:29:28.535Z,55.38
2019-05-18T16:31:57.521Z,55.48
2019-05-18T16:34:26.570Z,54.21
2019-05-18T16:36:55.548Z,55.00
2019-05-18T16:39:24.748Z,53.38
2019-05-18T16:41:53.886Z,54.28
2019-05-18T16:44:22.908Z,54.71
2019-05-18T16:46:51.986Z,55.34
2019-05-18T16:49:21.016Z,55.21
2019-05-18T16:51:49.982Z,54.97
2019-05-18T16:54:19.080Z,55.42
2019-05-18T16:56:48.063Z,53.66
2019-05-18T16:59:17.216Z,53.36
2019-05-18T17:01:46.362Z,53.93
2019-05-18T17:04:15.399Z,56.68
2019-05-18T17:06:44.485Z,56.68
2019-05-18T17:09:13.640Z,57.88
2019-05-18T17:11:42.691Z,58.67
2019-05-18T17:14:11.802Z,59.60
2019-05-18T17:16:40.808Z,59.94
2019-05-18T17:19:09.930Z,59.42
2019-05-18T17:21:40.275Z,59.89
2019-05-18T17:24:09.300Z,59.16
2019-05-18T17:26:51.497Z,57.99
2019-05-18T17:29:09.151Z,58.61
2019-05-18T17:31:38.158Z,60.58
2019-05-18T17:34:07.202Z,58.61
2019-05-18T17:36:36.204Z,59.38
2019-05-18T17:39:06.818Z,58.56
2019-05-18T17:41:35.957Z,60.37
2019-05-18T17:44:05.119Z,59.03
2019-05-18T17:46:35.498Z,59.07
2019-05-18T17:49:04.737Z,61.80
2019-05-18T17:51:33.832Z,62.87
2019-05-18T17:54:03.010Z,65.22
2019-05-18T17:56:32.177Z,69.29
2019-05-18T17:59:01.363Z,71.25
2019-05-18T18:01:30.380Z,71.25
2019-05-18T18:03:59.454Z,72.18
2019-05-18T18:06:28.525Z,72.17
2019-05-18T18:08:57.575Z,72.67
2019-05-18T18:11:26.707Z,75.03
2019-05-18T18:13:55.797Z,76.04
2019-05-18T18:16:25.038Z,74.93
2019-05-18T18:18:54.237Z,75.58
2019-05-18T18:21:23.524Z,76.29
2019-05-18T18:23:55.030Z,75.76
2019-05-18T18:26:23.579Z,77.84
2019-05-18T18:28:52.761Z,77.71
2019-05-18T18:31:22.001Z,79.23
2019-05-18T18:33:51.124Z,78.38
2019-05-18T18:36:20.330Z,78.60
2019-05-18T18:38:49.519Z,79.36
2019-05-18T18:41:18.592Z,78.90
2019-05-18T18:43:47.737Z,81.21
2019-05-18T18:46:16.893Z,79.94
2019-05-18T18:48:50.998Z,78.76
2019-05-18T18:51:22.143Z,78.44
2019-05-18T18:53:54.364Z,78.91
2019-05-18T18:56:30.705Z,78.40
2019-05-18T18:59:03.690Z,80.47
2019-05-18T19:01:32.932Z,79.45
2019-05-18T19:04:02.113Z,80.01
2019-05-18T19:06:31.433Z,79.78
2019-05-18T19:09:00.610Z,81.27
2019-05-18T19:11:29.679Z,80.76
2019-05-18T19:14:00.686Z,83.13
2019-05-18T19:16:29.444Z,82.50
2019-05-18T19:18:58.501Z,82.50
2019-05-18T19:21:27.740Z,83.33
2019-05-18T19:23:56.761Z,83.33
2019-05-18T19:26:25.966Z,84.37
2019-05-18T19:28:55.104Z,84.37
2019-05-18T19:31:24.217Z,84.65
2019-05-18T19:33:53.321Z,84.65
2019-05-18T19:36:22.471Z,84.74
2019-05-18T19:38:51.555Z,86.76
2019-05-18T19:41:20.759Z,86.76
2019-05-18T19:43:49.786Z,85.59
2019-05-18T19:46:18.827Z,85.36
2019-05-18T19:48:47.895Z,87.30
2019-05-18T19:51:16.946Z,86.69
2019-05-18T19:53:45.961Z,87.73
2019-05-18T19:56:15.050Z,86.93
2019-05-18T19:58:44.037Z,87.75
2019-05-18T20:01:13.097Z,88.34
2019-05-18T20:03:42.196Z,88.26
2019-05-18T20:06:11.175Z,87.85
2019-05-18T20:08:40.551Z,88.81
2019-05-18T20:11:09.548Z,88.97
2019-05-18T20:13:38.552Z,89.52
2019-05-18T20:16:07.658Z,89.11
2019-05-18T20:18:36.787Z,90.55
2019-05-18T20:21:05.972Z,90.76
2019-05-18T20:23:35.044Z,90.53
2019-05-18T20:26:04.263Z,91.09
2019-05-18T20:28:33.317Z,90.88
2019-05-18T20:31:02.747Z,91.20
2019-05-18T20:33:32.320Z,89.29
2019-05-18T20:36:01.322Z,90.24
2019-05-18T20:38:30.441Z,90.24
2019-05-18T20:40:59.595Z,90.96
2019-05-18T20:43:28.721Z,88.81
2019-05-18T20:45:57.845Z,90.25
2019-05-18T20:48:26.973Z,91.03
2019-05-18T20:50:55.953Z,90.81
2019-05-18T20:53:25.096Z,91.01
2019-05-18T20:55:54.257Z,90.54
2019-05-18T20:58:38.252Z,91.79
2019-05-18T21:00:54.131Z,92.65
2019-05-18T21:03:23.152Z,92.49
2019-05-18T21:05:52.278Z,92.45
2019-05-18T21:08:21.289Z,92.49
2019-05-18T21:10:50.374Z,92.04
2019-05-18T21:13:19.491Z,91.67
2019-05-18T21:15:48.501Z,91.70
2019-05-18T21:18:18.626Z,92.51
2019-05-18T21:20:47.710Z,93.39
2019-05-18T21:23:16.727Z,92.34
2019-05-18T21:25:45.803Z,91.89
2019-05-18T21:28:14.832Z,92.04
2019-05-18T21:30:43.830Z,93.59
2019-05-18T21:33:12.975Z,93.59
2019-05-18T21:35:41.968Z,93.23
2019-05-18T21:38:10.972Z,93.84
2019-05-18T21:40:40.085Z,94.09
2019-05-18T21:43:09.171Z,93.88
2019-05-18T21:45:38.241Z,93.77
2019-05-18T21:48:07.299Z,93.43
2019-05-18T21:50:36.361Z,94.12
2019-05-18T21:53:05.424Z,94.12
2019-05-18T21:55:34.481Z,93.66
2019-05-18T21:58:05.823Z,93.61
2019-05-18T22:00:35.096Z,94.65
2019-05-18T22:03:04.261Z,93.22
2019-05-18T22:05:33.360Z,93.63
2019-05-18T22:08:02.442Z,92.91
2019-05-18T22:10:31.713Z,93.70
2019-05-18T22:13:00.718Z,93.70
2019-05-18T22:15:29.848Z,93.83
2019-05-18T22:18:04.930Z,93.68
2019-05-18T22:20:43.286Z,93.68
2019-05-18T22:23:08.590Z,94.57
2019-05-18T22:25:37.763Z,94.09
2019-05-18T22:28:06.867Z,94.46
2019-05-18T22:30:35.968Z,94.50
2019-05-18T22:33:05.135Z,93.78
2019-05-18T22:35:38.328Z,95.44
2019-05-18T22:38:05.148Z,95.44
2019-05-18T22:40:34.241Z,94.40
2019-05-18T22:43:03.420Z,95.26
2019-05-18T22:45:32.805Z,95.26
2019-05-18T22:48:01.935Z,97.36
2019-05-18T22:50:30.951Z,96.37
2019-05-18T22:52:59.950Z,95.70
2019-05-18T22:55:29.046Z,95.51
2019-05-18T22:57:58.054Z,95.97
2019-05-18T23:00:27.114Z,96.79
2019-05-18T23:02:56.157Z,96.41
2019-05-18T23:05:25.307Z,96.57
2019-05-18T23:07:54.360Z,97.02
2019-05-18T23:10:23.518Z,95.87
2019-05-18T23:12:52.593Z,96.11
2019-05-18T23:15:21.884Z,96.05
2019-05-18T23:17:51.044Z,96.67
2019-05-18T23:20:20.332Z,96.25
2019-05-18T23:22:49.472Z,96.88
2019-05-18T23:25:18.593Z,96.86
2019-05-18T23:27:47.561Z,97.19
2019-05-18T23:30:16.712Z,96.60
2019-05-18T23:32:45.741Z,96.71
2019-05-18T23:35:14.829Z,97.89
2019-05-18T23:37:43.940Z,97.75
2019-05-18T23:40:14.322Z,97.75
2019-05-18T23:42:43.405Z,98.17
2019-05-18T23:45:12.746Z,98.56
2019-05-18T23:47:41.874Z,98.69
2019-05-18T23:50:11.156Z,98.52
2019-05-18T23:52:40.196Z,99.25
2019-05-18T23:55:09.466Z,100.00
2019-05-18T23:57:38.665Z,100.00
